createdAt,value
2019-03-01T00:00:20.697Z,4.07
2019-03-01T00:02:48.862Z,5.17
2019-03-01T00:05:53.298Z,8.43
2019-03-01T00:08:21.634Z,9.40
2019-03-01T00:11:07.748Z,11.30
2019-03-01T00:14:00.139Z,11.33
2019-03-01T00:17:06.336Z,10.63
2019-03-01T00:19:54.260Z,10.73
2019-03-01T00:22:34.538Z,10.97
2019-03-01T00:25:29.857Z,8.70
2019-03-01T00:28:01.136Z,7.90
2019-03-01T00:30:50.633Z,9.87
2019-03-01T00:33:25.131Z,5.93
2019-03-01T00:36:16.415Z,7.93
2019-03-01T00:39:07.354Z,8.03
2019-03-01T00:41:41.566Z,7.60
2019-03-01T00:44:29.395Z,7.83
2019-03-01T00:46:57.610Z,8.53
2019-03-01T00:49:25.810Z,7.80
2019-03-01T00:51:54.009Z,6.87
2019-03-01T00:54:22.197Z,6.63
2019-03-01T00:56:50.736Z,8.23
2019-03-01T00:59:18.912Z,7.90
2019-03-01T01:01:47.363Z,6.27
2019-03-01T01:04:15.582Z,10.00
2019-03-01T01:06:43.790Z,8.80
2019-03-01T01:09:11.982Z,8.27
2019-03-01T01:11:40.188Z,9.93
2019-03-01T01:14:08.434Z,7.97
2019-03-01T01:16:36.631Z,5.73
2019-03-01T01:19:04.904Z,9.17
2019-03-01T01:21:33.096Z,10.27
2019-03-01T01:24:01.745Z,13.30
2019-03-01T01:26:29.927Z,9.93
2019-03-01T01:28:58.119Z,9.83
2019-03-01T01:31:26.311Z,13.17
2019-03-01T01:33:54.533Z,12.80
2019-03-01T01:36:23.036Z,9.23
2019-03-01T01:38:51.285Z,13.83
2019-03-01T01:41:19.463Z,6.97
2019-03-01T01:43:47.660Z,8.33
2019-03-01T01:46:15.867Z,7.23
2019-03-01T01:48:44.072Z,9.20
2019-03-01T01:51:12.558Z,7.23
2019-03-01T01:53:40.754Z,5.87
2019-03-01T01:56:09.518Z,7.83
2019-03-01T01:58:37.999Z,9.27
2019-03-01T02:01:06.255Z,5.23
2019-03-01T02:03:34.750Z,9.90
2019-03-01T02:06:02.927Z,9.70
2019-03-01T02:08:31.119Z,8.27
2019-03-01T02:10:59.306Z,6.23
2019-03-01T02:13:27.497Z,7.80
2019-03-01T02:15:55.926Z,6.80
2019-03-01T02:18:24.613Z,7.80
2019-03-01T02:20:53.102Z,9.17
2019-03-01T02:23:21.333Z,6.10
2019-03-01T02:25:49.854Z,8.17
2019-03-01T02:28:18.021Z,6.20
2019-03-01T02:30:58.231Z,8.83
2019-03-01T02:33:26.407Z,7.67
2019-03-01T02:35:54.935Z,6.87
2019-03-01T02:38:23.417Z,7.20
2019-03-01T02:40:51.598Z,5.43
2019-03-01T02:43:19.792Z,7.97
2019-03-01T02:45:47.971Z,9.10
2019-03-01T02:48:16.511Z,6.50
2019-03-01T02:50:44.796Z,5.33
2019-03-01T02:53:13.007Z,6.03
2019-03-01T02:55:41.662Z,8.73
2019-03-01T02:58:09.882Z,7.77
2019-03-01T03:00:38.215Z,6.23
2019-03-01T03:03:06.393Z,9.50
2019-03-01T03:05:36.249Z,8.00
2019-03-01T03:08:06.091Z,9.30
2019-03-01T03:10:34.280Z,7.63
2019-03-01T03:13:04.808Z,14.33
2019-03-01T03:15:34.656Z,10.73
2019-03-01T03:18:02.951Z,10.27
2019-03-01T03:20:31.188Z,9.17
2019-03-01T03:22:59.746Z,6.97
2019-03-01T03:25:28.213Z,7.73
2019-03-01T03:27:56.404Z,13.17
2019-03-01T03:30:24.674Z,12.07
2019-03-01T03:32:52.869Z,11.63
2019-03-01T03:35:21.425Z,7.87
2019-03-01T03:37:49.638Z,10.17
2019-03-01T03:40:17.835Z,7.63
2019-03-01T03:42:46.011Z,8.13
2019-03-01T03:45:16.300Z,10.60
2019-03-01T03:47:44.579Z,9.43
2019-03-01T03:50:13.997Z,8.77
2019-03-01T03:52:42.570Z,10.90
2019-03-01T03:55:13.854Z,12.70
2019-03-01T03:57:42.379Z,11.83
2019-03-01T04:00:19.088Z,12.10
2019-03-01T04:02:47.614Z,12.50
2019-03-01T04:05:16.544Z,10.10
2019-03-01T04:07:44.743Z,9.67
2019-03-01T04:10:13.365Z,17.17
2019-03-01T04:12:41.569Z,10.07
2019-03-01T04:15:14.945Z,10.37
2019-03-01T04:17:43.118Z,10.57
2019-03-01T04:20:14.778Z,13.27
2019-03-01T04:22:42.949Z,21.00
2019-03-01T04:25:11.409Z,13.20
2019-03-01T04:27:39.615Z,13.93
2019-03-01T04:30:11.116Z,11.53
2019-03-01T04:32:39.381Z,12.77
2019-03-01T04:35:07.891Z,17.67
2019-03-01T04:37:36.168Z,17.17
2019-03-01T04:40:06.838Z,12.03
2019-03-01T04:42:35.173Z,16.00
2019-03-01T04:45:04.027Z,8.97
2019-03-01T04:47:32.230Z,5.43
2019-03-01T04:50:00.419Z,5.37
2019-03-01T04:52:31.699Z,7.37
2019-03-01T04:54:59.874Z,5.33
2019-03-01T04:57:28.430Z,6.47
2019-03-01T04:59:56.995Z,7.70
2019-03-01T05:02:25.264Z,5.73
2019-03-01T05:04:53.863Z,6.57
2019-03-01T05:07:22.442Z,5.17
2019-03-01T05:09:50.923Z,5.23
2019-03-01T05:12:19.115Z,6.70
2019-03-01T05:14:47.309Z,6.37
2019-03-01T05:17:15.507Z,5.80
2019-03-01T05:19:43.706Z,7.83
2019-03-01T05:22:14.987Z,7.23
2019-03-01T05:24:43.394Z,6.00
2019-03-01T05:27:11.578Z,12.60
2019-03-01T05:29:39.779Z,3.90
2019-03-01T05:32:07.960Z,5.33
2019-03-01T05:34:36.166Z,7.87
2019-03-01T05:37:04.478Z,8.97
2019-03-01T05:39:32.653Z,8.00
2019-03-01T05:42:01.159Z,7.47
2019-03-01T05:44:29.358Z,8.70
2019-03-01T05:46:57.534Z,7.00
2019-03-01T05:49:25.755Z,13.87
2019-03-01T05:51:53.955Z,8.40
2019-03-01T05:54:22.431Z,8.93
2019-03-01T05:56:50.636Z,9.80
2019-03-01T05:59:21.069Z,7.60
2019-03-01T06:01:52.351Z,9.17
2019-03-01T06:04:23.941Z,8.57
2019-03-01T06:07:16.603Z,11.87
2019-03-01T06:10:21.219Z,13.27
2019-03-01T06:13:10.627Z,6.87
2019-03-01T06:15:53.987Z,8.97
2019-03-01T06:18:49.450Z,7.60
2019-03-01T06:21:55.715Z,8.30
2019-03-01T06:24:32.873Z,7.03
2019-03-01T06:27:26.553Z,10.00
2019-03-01T06:29:58.098Z,9.67
2019-03-01T06:32:46.943Z,12.83
2019-03-01T06:35:34.779Z,15.93
2019-03-01T06:38:16.742Z,13.53
2019-03-01T06:41:19.548Z,17.63
2019-03-01T06:44:24.491Z,20.07
2019-03-01T06:47:19.587Z,20.17
2019-03-01T06:49:52.279Z,25.00
2019-03-01T06:52:22.186Z,21.70
2019-03-01T06:54:50.563Z,26.07
2019-03-01T06:57:18.764Z,30.43
2019-03-01T06:59:46.983Z,33.67
2019-03-01T07:02:17.142Z,31.97
2019-03-01T07:04:45.621Z,42.90
2019-03-01T07:07:13.816Z,38.47
2019-03-01T07:09:42.573Z,44.53
2019-03-01T07:12:10.840Z,46.80
2019-03-01T07:14:39.345Z,48.87
2019-03-01T07:17:07.523Z,48.20
2019-03-01T07:19:35.765Z,45.73
2019-03-01T07:22:03.978Z,46.73
2019-03-01T07:24:32.437Z,47.10
2019-03-01T07:27:00.610Z,44.30
2019-03-01T07:29:28.801Z,45.63
2019-03-01T07:31:56.978Z,43.30
2019-03-01T07:34:25.177Z,41.47
2019-03-01T07:36:53.366Z,49.30
2019-03-01T07:39:21.554Z,45.47
2019-03-01T07:41:49.762Z,49.63
2019-03-01T07:44:17.969Z,52.33
2019-03-01T07:46:52.976Z,50.63
2019-03-01T07:49:16.414Z,54.90
2019-03-01T07:51:44.621Z,59.40
2019-03-01T07:54:16.908Z,62.60
2019-03-01T07:56:43.733Z,65.97
2019-03-01T07:59:11.941Z,65.17
2019-03-01T08:01:40.663Z,62.60
2019-03-01T08:04:08.851Z,69.53
2019-03-01T08:06:37.414Z,75.73
2019-03-01T08:09:08.925Z,89.00
2019-03-01T08:11:37.465Z,101.47
2019-03-01T08:14:05.751Z,146.40
2019-03-01T08:16:33.947Z,152.23
2019-03-01T08:19:02.157Z,164.87
2019-03-01T08:21:30.352Z,168.60
2019-03-01T08:23:58.572Z,158.20
2019-03-01T08:26:26.777Z,168.33
2019-03-01T08:28:58.581Z,173.43
2019-03-01T08:31:24.951Z,178.37
2019-03-01T08:33:53.149Z,183.43
2019-03-01T08:36:21.663Z,193.40
2019-03-01T08:38:49.929Z,175.97
2019-03-01T08:41:18.152Z,194.77
2019-03-01T08:43:47.992Z,193.00
2019-03-01T08:46:16.801Z,172.83
2019-03-01T08:48:45.005Z,181.73
2019-03-01T08:51:13.539Z,176.70
2019-03-01T08:53:41.727Z,168.00
2019-03-01T08:56:10.920Z,153.27
2019-03-01T08:58:41.565Z,150.63
2019-03-01T09:01:13.698Z,144.03
2019-03-01T09:03:50.612Z,136.07
2019-03-01T09:06:21.833Z,134.27
2019-03-01T09:08:50.144Z,129.10
2019-03-01T09:11:18.331Z,120.47
2019-03-01T09:13:46.862Z,136.20
2019-03-01T09:16:15.339Z,141.93
2019-03-01T09:18:46.553Z,135.27
2019-03-01T09:21:13.715Z,149.87
2019-03-01T09:23:42.030Z,145.97
2019-03-01T09:26:10.219Z,149.73
2019-03-01T09:28:39.695Z,145.03
2019-03-01T09:31:08.202Z,151.97
2019-03-01T09:33:36.398Z,163.47
2019-03-01T09:36:18.009Z,145.50
2019-03-01T09:38:45.287Z,144.53
2019-03-01T09:41:13.854Z,159.30
2019-03-01T09:43:42.039Z,143.37
2019-03-01T09:46:10.218Z,167.53
2019-03-01T09:48:38.417Z,158.97
2019-03-01T09:51:07.328Z,163.77
2019-03-01T09:53:36.525Z,173.47
2019-03-01T09:56:04.777Z,171.43
2019-03-01T09:58:32.970Z,184.20
2019-03-01T10:01:09.833Z,164.47
2019-03-01T10:03:38.377Z,162.60
2019-03-01T10:06:06.563Z,138.90
2019-03-01T10:08:35.027Z,127.87
2019-03-01T10:11:03.498Z,96.97
2019-03-01T10:16:00.236Z,117.60
2019-03-01T10:18:28.458Z,107.03
2019-03-01T10:20:56.655Z,115.83
2019-03-01T10:23:25.078Z,120.43
2019-03-01T10:25:53.262Z,117.70
2019-03-01T10:28:21.462Z,125.67
2019-03-01T10:30:49.907Z,137.53
2019-03-01T10:33:18.093Z,139.70
2019-03-01T10:35:46.378Z,137.10
2019-03-01T10:38:14.560Z,131.47
2019-03-01T10:40:43.006Z,122.07
2019-03-01T10:43:11.486Z,124.50
2019-03-01T10:45:39.682Z,116.83
2019-03-01T10:48:07.857Z,125.60
2019-03-01T10:50:36.057Z,120.13
2019-03-01T10:53:04.233Z,132.13
2019-03-01T10:55:32.431Z,138.27
2019-03-01T10:58:00.601Z,120.37
2019-03-01T11:00:30.171Z,136.07
2019-03-01T11:02:58.818Z,135.43
2019-03-01T11:05:27.340Z,132.23
2019-03-01T11:07:56.467Z,116.93
2019-03-01T11:10:32.618Z,111.77
2019-03-01T11:13:00.835Z,108.73
2019-03-01T11:15:29.107Z,102.73
2019-03-01T11:17:57.291Z,112.47
2019-03-01T11:20:25.462Z,123.37
2019-03-01T11:22:53.756Z,122.63
2019-03-01T11:25:23.598Z,116.77
2019-03-01T11:27:52.071Z,108.30
2019-03-01T11:30:25.401Z,115.07
2019-03-01T11:32:56.938Z,118.03
2019-03-01T11:35:25.224Z,113.97
2019-03-01T11:37:53.594Z,120.83
2019-03-01T11:40:32.836Z,113.77
2019-03-01T11:43:01.475Z,118.77
2019-03-01T11:45:29.656Z,122.40
2019-03-01T11:47:57.915Z,131.90
2019-03-01T11:50:26.662Z,125.83
2019-03-01T11:52:54.842Z,118.03
2019-03-01T11:55:23.044Z,129.33
2019-03-01T11:57:51.236Z,123.47
2019-03-01T12:00:25.108Z,121.30
2019-03-01T12:02:53.442Z,117.60
2019-03-01T12:05:22.557Z,118.37
2019-03-01T12:07:51.348Z,119.27
2019-03-01T12:10:22.251Z,117.53
2019-03-01T12:12:50.536Z,110.17
2019-03-01T12:15:18.757Z,117.57
2019-03-01T12:17:46.987Z,119.37
2019-03-01T12:20:18.327Z,119.87
2019-03-01T12:22:46.531Z,118.87
2019-03-01T12:25:14.974Z,109.17
2019-03-01T12:27:43.164Z,112.53
2019-03-01T12:30:16.573Z,96.20
2019-03-01T12:32:44.754Z,102.67
2019-03-01T12:35:13.010Z,95.37
2019-03-01T12:37:41.190Z,93.77
2019-03-01T12:40:14.931Z,97.17
2019-03-01T12:42:43.185Z,91.43
2019-03-01T12:45:15.771Z,88.77
2019-03-01T12:47:44.397Z,88.17
2019-03-01T12:50:15.502Z,100.60
2019-03-01T12:52:44.076Z,92.50
2019-03-01T12:55:24.189Z,111.63
2019-03-01T12:57:52.367Z,105.23
2019-03-01T13:00:26.441Z,109.07
2019-03-01T13:02:54.615Z,120.57
2019-03-01T13:05:25.551Z,108.70
2019-03-01T13:07:54.513Z,128.67
2019-03-01T13:10:28.414Z,133.80
2019-03-01T13:12:58.820Z,122.00
2019-03-01T13:15:26.549Z,107.40
2019-03-01T13:17:54.727Z,99.90
2019-03-01T13:20:22.936Z,108.00
2019-03-01T13:22:51.641Z,98.33
2019-03-01T13:25:19.855Z,91.10
2019-03-01T13:27:48.793Z,101.27
2019-03-01T13:30:25.336Z,94.17
2019-03-01T13:32:55.023Z,96.80
2019-03-01T13:35:25.981Z,104.00
2019-03-01T13:37:55.449Z,100.70
2019-03-01T13:40:24.531Z,102.03
2019-03-01T13:42:53.709Z,116.67
2019-03-01T13:45:23.749Z,126.23
2019-03-01T13:47:51.966Z,112.00
2019-03-01T13:50:21.245Z,112.80
2019-03-01T13:52:50.212Z,119.97
2019-03-01T13:55:21.564Z,114.17
2019-03-01T13:57:49.938Z,105.30
2019-03-01T14:00:22.130Z,99.93
2019-03-01T14:02:50.853Z,86.07
2019-03-01T14:05:19.504Z,84.83
2019-03-01T14:07:48.613Z,74.47
2019-03-01T14:10:22.978Z,76.67
2019-03-01T14:12:51.174Z,72.30
2019-03-01T14:15:19.378Z,62.87
2019-03-01T14:17:47.733Z,53.73
2019-03-01T14:20:20.329Z,52.27
2019-03-01T14:22:49.073Z,50.30
2019-03-01T14:25:18.264Z,51.83
2019-03-01T14:27:46.781Z,43.83
2019-03-01T14:30:30.187Z,46.80
2019-03-01T14:32:57.766Z,42.77
2019-03-01T14:35:26.874Z,44.50
2019-03-01T14:37:55.746Z,52.17
2019-03-01T14:40:24.124Z,49.73
2019-03-01T14:42:52.318Z,44.90
2019-03-01T14:45:32.022Z,51.87
2019-03-01T14:48:00.295Z,51.13
2019-03-01T14:50:33.629Z,56.43
2019-03-01T14:53:00.510Z,38.17
2019-03-01T14:55:40.827Z,42.33
2019-03-01T14:58:19.003Z,34.40
2019-03-01T15:01:07.104Z,40.27
2019-03-01T15:03:37.084Z,40.33
2019-03-01T15:06:06.309Z,44.27
2019-03-01T15:08:34.867Z,33.43
2019-03-01T15:11:07.987Z,40.47
2019-03-01T15:13:36.260Z,31.33
2019-03-01T15:16:15.626Z,42.73
2019-03-01T15:18:45.176Z,51.33
2019-03-01T15:21:14.818Z,81.10
2019-03-01T15:23:43.026Z,86.30
2019-03-01T15:26:11.197Z,99.13
2019-03-01T15:28:55.182Z,138.83
2019-03-01T15:31:20.790Z,145.37
2019-03-01T15:33:48.970Z,158.77
2019-03-01T15:36:17.894Z,169.63
2019-03-01T15:38:47.233Z,178.77
2019-03-01T15:41:15.450Z,164.47
2019-03-01T15:43:43.665Z,151.03
2019-03-01T15:46:14.424Z,122.63
2019-03-01T15:48:42.641Z,109.90
2019-03-01T15:51:11.103Z,98.10
2019-03-01T15:53:39.608Z,81.07
2019-03-01T15:56:07.807Z,83.27
2019-03-01T15:58:35.984Z,68.63
2019-03-01T16:01:10.938Z,68.53
2019-03-01T16:03:37.156Z,65.30
2019-03-01T16:06:05.407Z,58.27
2019-03-01T16:08:33.598Z,58.10
2019-03-01T16:11:01.790Z,48.37
2019-03-01T16:13:29.985Z,43.60
2019-03-01T16:15:58.167Z,52.33
2019-03-01T16:18:26.433Z,56.13
2019-03-01T16:20:54.646Z,64.87
2019-03-01T16:23:22.834Z,56.80
2019-03-01T16:25:53.099Z,58.23
2019-03-01T16:28:21.056Z,55.90
2019-03-01T16:30:49.652Z,45.10
2019-03-01T16:33:22.581Z,68.77
2019-03-01T16:35:51.779Z,61.97
2019-03-01T16:38:19.009Z,66.03
2019-03-01T16:40:47.592Z,57.90
2019-03-01T16:43:15.786Z,53.90
2019-03-01T16:45:44.137Z,55.80
2019-03-01T16:48:13.641Z,43.67
2019-03-01T16:50:44.085Z,54.20
2019-03-01T16:53:12.986Z,58.93
2019-03-01T16:55:41.190Z,66.23
2019-03-01T16:58:09.379Z,53.83
2019-03-01T17:00:37.565Z,70.63
2019-03-01T17:03:16.560Z,60.03
2019-03-01T17:05:43.491Z,72.50
2019-03-01T17:08:11.681Z,68.73
2019-03-01T17:10:39.906Z,61.80
2019-03-01T17:13:08.086Z,63.83
2019-03-01T17:15:36.556Z,66.70
2019-03-01T17:18:04.958Z,70.37
2019-03-01T17:20:37.486Z,58.60
2019-03-01T17:23:03.847Z,64.50
2019-03-01T17:25:32.164Z,67.93
2019-03-01T17:28:00.366Z,69.87
2019-03-01T17:30:30.666Z,58.73
2019-03-01T17:33:00.770Z,62.33
2019-03-01T17:38:22.467Z,59.13
2019-03-01T17:43:44.731Z,56.90
2019-03-01T17:46:13.030Z,62.20
2019-03-01T17:48:47.056Z,63.10
2019-03-01T17:51:18.263Z,58.50
2019-03-01T17:53:46.312Z,45.97
2019-03-01T17:56:18.643Z,41.80
2019-03-01T17:58:47.340Z,32.63
2019-03-01T18:01:15.772Z,40.97
2019-03-01T18:03:44.098Z,42.73
2019-03-01T18:06:16.803Z,46.10
2019-03-01T18:08:44.856Z,42.93
2019-03-01T18:11:13.277Z,40.70
2019-03-01T18:13:41.842Z,37.83
2019-03-01T18:16:10.284Z,35.53
2019-03-01T18:18:38.594Z,40.00
2019-03-01T18:21:10.141Z,31.83
2019-03-01T18:23:37.926Z,34.10
2019-03-01T18:26:07.505Z,37.90
2019-03-01T18:28:35.818Z,34.37
2019-03-01T18:31:04.639Z,41.43
2019-03-01T18:33:35.402Z,32.50
2019-03-01T18:36:03.983Z,32.93
2019-03-01T18:38:32.455Z,37.20
2019-03-01T18:41:01.458Z,36.17
2019-03-01T18:43:29.837Z,38.07
2019-03-01T18:45:58.702Z,36.33
2019-03-01T18:48:28.078Z,39.40
2019-03-01T18:50:56.891Z,38.20
2019-03-01T18:53:28.908Z,38.43
2019-03-01T18:55:57.471Z,37.27
2019-03-01T19:01:13.226Z,43.93
2019-03-01T19:03:41.596Z,29.50
2019-03-01T19:06:12.800Z,38.67
2019-03-01T19:08:40.475Z,41.83
2019-03-01T19:11:08.904Z,33.83
2019-03-01T19:13:37.260Z,41.30
2019-03-01T19:16:05.662Z,39.90
2019-03-01T19:18:34.224Z,41.97
2019-03-01T19:21:04.364Z,39.13
2019-03-01T19:23:33.347Z,54.43
2019-03-01T19:26:01.989Z,40.73
2019-03-01T19:28:30.361Z,48.07
2019-03-01T19:30:58.634Z,47.13
2019-03-01T19:33:26.952Z,48.73
2019-03-01T19:35:55.240Z,53.93
2019-03-01T19:38:25.122Z,51.80
2019-03-01T19:46:28.334Z,55.00
2019-03-01T19:48:57.727Z,59.83
2019-03-01T19:51:26.270Z,60.40
2019-03-01T19:53:57.442Z,52.00
2019-03-01T19:56:26.001Z,56.03
2019-03-01T19:58:54.428Z,54.73
2019-03-01T20:01:22.803Z,58.70
2019-03-01T20:03:51.441Z,48.63
2019-03-01T20:06:20.081Z,48.40
2019-03-01T20:08:48.390Z,42.30
2019-03-01T20:11:16.680Z,40.33
2019-03-01T20:13:45.124Z,38.77
2019-03-01T20:16:13.656Z,36.17
2019-03-01T20:18:45.061Z,31.53
2019-03-01T20:21:12.760Z,41.90
2019-03-01T20:23:41.644Z,34.93
2019-03-01T20:26:10.360Z,37.17
2019-03-01T20:28:38.786Z,44.43
2019-03-01T20:31:07.622Z,37.27
2019-03-01T20:33:35.968Z,36.00
2019-03-01T20:36:04.327Z,36.57
2019-03-01T20:38:32.663Z,40.83
2019-03-01T20:41:03.153Z,40.40
2019-03-01T20:43:31.274Z,36.07
2019-03-01T20:45:59.772Z,34.87
2019-03-01T20:48:32.174Z,33.33
2019-03-01T20:51:00.667Z,38.97
2019-03-01T20:53:29.072Z,37.90
2019-03-01T20:55:57.871Z,35.83
2019-03-01T20:58:26.271Z,32.27
2019-03-01T21:00:54.665Z,35.53
2019-03-01T21:03:29.827Z,39.83
2019-03-01T21:05:53.883Z,32.17
2019-03-01T21:08:29.793Z,34.53
2019-03-01T21:10:58.425Z,32.80
2019-03-01T21:13:26.838Z,32.13
2019-03-01T21:15:55.616Z,31.20
2019-03-01T21:18:23.948Z,28.93
2019-03-01T21:20:53.711Z,26.90
2019-03-01T21:23:22.745Z,26.53
2019-03-01T21:25:51.502Z,29.70
2019-03-01T21:28:20.102Z,31.20
2019-03-01T21:30:48.902Z,30.47
2019-03-01T21:33:17.968Z,30.37
2019-03-01T21:35:47.850Z,31.50
2019-03-01T21:38:16.860Z,29.57
2019-03-01T21:40:46.906Z,29.90
2019-03-01T21:43:15.965Z,25.53
2019-03-01T21:45:44.366Z,24.80
2019-03-01T21:48:13.617Z,26.50
2019-03-01T21:50:44.715Z,24.27
2019-03-01T21:53:13.187Z,19.40
2019-03-01T21:55:41.567Z,16.00
2019-03-01T21:58:09.955Z,16.77
2019-03-01T22:00:38.694Z,16.77
2019-03-01T22:03:07.183Z,15.33
2019-03-01T22:05:35.391Z,18.60
2019-03-01T22:08:03.820Z,17.10
2019-03-01T22:10:37.948Z,12.60
2019-03-01T22:13:05.669Z,11.43
2019-03-01T22:15:34.311Z,13.00
2019-03-01T22:18:02.803Z,10.33
2019-03-01T22:20:34.327Z,8.57
2019-03-01T22:23:02.720Z,9.90
2019-03-01T22:25:34.462Z,9.67
2019-03-01T22:28:01.921Z,9.47
2019-03-01T22:30:34.051Z,8.87
2019-03-01T22:33:02.571Z,8.07
2019-03-01T22:35:30.722Z,13.13
2019-03-01T22:38:01.026Z,10.47
2019-03-01T22:40:29.397Z,13.20
2019-03-01T22:42:57.819Z,15.87
2019-03-01T22:45:26.472Z,15.37
2019-03-01T22:47:54.676Z,12.83
2019-03-01T22:50:23.688Z,15.63
2019-03-01T22:52:51.973Z,17.57
2019-03-01T22:55:20.686Z,19.47
2019-03-01T22:57:48.894Z,16.87
2019-03-01T23:00:50.016Z,23.10
2019-03-01T23:03:20.227Z,21.67
2019-03-01T23:05:48.583Z,18.83
2019-03-01T23:08:16.801Z,24.00
2019-03-01T23:10:44.991Z,18.70
2019-03-01T23:13:13.162Z,24.53
2019-03-01T23:15:43.410Z,21.67
2019-03-01T23:18:11.555Z,22.57
2019-03-01T23:20:39.761Z,26.73
2019-03-01T23:23:07.937Z,23.57
2019-03-01T23:25:36.113Z,27.87
2019-03-01T23:28:17.605Z,21.80
2019-03-01T23:30:45.782Z,25.27
2019-03-01T23:33:16.991Z,25.90
2019-03-01T23:35:45.384Z,23.90
2019-03-01T23:38:14.940Z,21.73
2019-03-01T23:40:43.453Z,25.50
2019-03-01T23:43:11.646Z,24.57
2019-03-01T23:45:39.818Z,23.40
2019-03-01T23:48:10.687Z,27.20
2019-03-01T23:50:37.941Z,23.67
2019-03-01T23:53:06.122Z,31.23
2019-03-01T23:55:34.292Z,25.63
2019-03-01T23:58:06.082Z,25.20
